Impacts TAF Board
For situational awareness. Not to be used for flight planning purposes.
IDs:

KSHV - Shreveport Rgnl, LA, US

Issued at 2340 UTC 05 Dec 2019
Updated at 0111 UTC 06 Dec 2019
Potential Impact None Slight Moderate High
Time0056Z 06/02Z 06/03Z 06/04Z 06/05Z 06/06Z 06/07Z 06/08Z 06/09Z 06/10Z 06/11Z 06/12Z 06/13Z 06/14Z>>
Type OBS PRVL PRVL PRVL PRVL PRVL PRVL PRVL PRVL PRVL PRVL PRVL PRVL PRVL
VIS 10 >6 >6 >6 >6 >6 >6 >6 >6 >6 >6 >6 >6 >6
CIG 150 150 150 150 150 150 150 150 25 25 25 25 25 25
Cover BKN BKN BKN BKN BKN BKN BKN BKN OVC OVC OVC OVC OVC OVC
FltCat VFR VFR VFR VFR VFR VFR VFR VFR MVFR MVFR MVFR MVFR MVFR MVFR
WX -- -- -- -- -- -- -- -- -- -- -- -- -- --
WDir 150 170 170 170 170 170 170 170 200 200 200 200 200 200
WSpd 10 10 10 10 10 10 10 10 10 10 10 10 10 10
WGst -- -- -- -- -- -- -- -- -- -- -- -- -- --
Raw TAF
KSHV 052340Z 0600/0624 17010KT P6SM BKN150
  FM060900 20010KT P6SM BKN025 OVC080
  FM061600 29008KT P6SM BKN025
  FM062100 32010KT P6SM BKN025


Raw METAR
KSHV 060056Z 15010KT 10SM BKN150 BKN220 18/06 A2997 RMK AO2 SLP146 T01780061
KSHV 052356Z 16008KT 10SM BKN150 BKN220 18/06 A2997 RMK AO2 SLP145 T01830056 10222 20133 53001
KSHV 052256Z 17011KT 10SM BKN170 BKN250 19/04 A2996 RMK AO2 SLP143 T01940044

METAR Board
Radar Display
Forecast Discussion
For situational awareness. Not to be used for flight planning purposes.